Terminal Aerodrome Forecast
Issued by NWS

Home | Current Version | Previous Version | Text Only | Print | Product List | Glossary On
Versions: 1 2 3 4 5 6 7 8 9 10 11 12 13 14 15 16 17 18 19 20
000
FTUS42 KFFC 021700
TAFRYY
TAF
KRYY 021722Z 0218/0318 28005KT P6SM VCSH SCT040
      TEMPO 0218/0222 VRB15G30KT 2SM TSRA BKN045CB
     FM030100 00000KT P6SM BKN150
     FM031500 33003KT P6SM SCT035=

USA.gov is the U.S. government's official web portal to all federal, state and local government web resources and services.